Agargaon, India

5:28 PM IST on December 05, 2016 (GMT +0530)
Nagpur | | Change Station

Elev 1017 ft 21.09 °N, 79.06 °E | Updated 28 minutes ago

Haze
Haze
81 °F
Feels Like 81 °F
N
0
Wind Variable Wind from North

Today
High -- | Low -- °F
--% Chance of Precip.
Yesterday
High -- | Low -- °F
Precip. -- in
Pressure 29.98 in
Visibility 1.9 miles
Clouds
Dew Point 50 °F
Humidity 34%
Rainfall 0.00 in
Snow Depth Not available.
6:35 AM 5:30 PM
Waxing Crescent, 31% visible
METAR VANP 051130Z 00000KT 3000 HZ NSC 27/10 Q1015 NOSIG
Pressure 29.98 in
Visibility 1.9 miles
Clouds
Dew Point 50 °F
Humidity 34%
Rainfall 0.00 in
Snow Depth Not available.
6:35 AM 5:30 PM
Waxing Crescent, 31% visible
METAR VANP 051130Z 00000KT 3000 HZ NSC 27/10 Q1015 NOSIG

10-Day Weather Forecast

No radar image for this location.
×

Almanac

Astronomy

Dec. 05, 2016 Rise Set
Actual Time
Civil Twilight
Nautical Twilight
Astronomical Twilight
Moon
Length of Visible Light
Length of Day
Tomorrow will be .
, % of the Moon is Illuminated

Today's Extremes

Country Highs Country Lows

Community

WunderPhotos

Upload Photos

1,955,777 photos uploaded!

WunderBlog® & News

Nearby

Air Quality

  Air Quality AQ Index Pollutant
Not available.

Snow Depth

Station Depth Elevation

Earthquake Activity

City Distance Mag. Time & Date
Minimum magnitude displayed is 2.5.

Coastal Water Temperatures

Place Temperature

Stations

Nearby Weather Stations

Station Location Temp. Windchill Dew Point Humidity Wind Precip. Elev Updated Type